Star Dieppe — LEQZ3 — position and weather

sailwx.info

Track history (hours):
 
Tides and Currents Weather Stations Pressure Air Temp Water Temp Dewpoint Dewpoint Depression Visibility Wind Speed Wind Dir Waves Ship Positions

Star Dieppe

Last reported at 2014-Jul-22 16:32 UTC. Time now 2014-Jul-22 17:31 UTC.
Position N 31°59' E 120°39'.

Length 182 m; draft 6.3 m.

Type: Cargo ship. MMSI: 257439000.

Date/timePositionNaut miles runAvg speedWind from/ knotsBaromVisibWave heightAir tempDewpointWater temp
2014-Jul-22 16:32N 31°59' E 120°39'0 0.0
2014-Jul-22 15:31N 31°59' E 120°39'0 0.0
2014-Jul-22 14:31N 31°59' E 120°39'0 0.0
2014-Jul-22 13:26N 31°59' E 120°39'0 0.0
2014-Jul-22 12:31N 31°59' E 120°39'0 0.0
2014-Jul-22 11:21N 31°59' E 120°39'0 0.0
2014-Jul-22 10:33N 31°59' E 120°39'0 0.0
2014-Jul-22 09:32N 31°59' E 120°39'0 0.0
2014-Jul-22 08:31N 31°59' E 120°39'0 0.0
2014-Jul-22 07:15N 31°59' E 120°39'0 0.0
2014-Jul-22 06:23N 31°59' E 120°39'0 0.0
2014-Jul-22 05:31N 31°59' E 120°39'0 0.0
2014-Jul-22 04:33N 31°59' E 120°39'3 3.1
2014-Jul-22 03:33N 32°01' E 120°36'1010.2
2014-Jul-22 02:33N 32°01' E 120°24'1312.9
2014-Jul-22 01:33N 31°56' E 120°10'1313.2
2014-Jul-22 00:33N 32°02' E 119°57'1414.5
2014-Jul-21 23:33N 32°16' E 119°52'8 8.4
2014-Jul-21 22:33N 32°16' E 119°42'1 0.6
2014-Jul-21 21:25N 32°16' E 119°42'0 0.0
2014-Jul-21 17:10N 32°16' E 119°42'0 0.0
2014-Jul-21 00:31N 32°16' E 119°42'0 0.0
2014-Jul-20 23:30N 32°16' E 119°42'0 0.0
2014-Jul-20 22:23N 32°16' E 119°42'0 0.0
2014-Jul-20 21:28N 32°16' E 119°42'0 0.0
2014-Jul-20 20:33N 32°16' E 119°42'0 0.1
2014-Jul-20 16:04N 32°16' E 119°42'4 0.2
2014-Jul-19 23:28N 32°13' E 119°40'0 0.0
2014-Jul-19 22:27N 32°13' E 119°40'0 0.0
2014-Jul-19 18:30N 32°13' E 119°40'3 0.3
2014-Jul-19 07:11N 32°16' E 119°42'7 5.9
2014-Jul-19 06:05N 32°19' E 119°48'5 8.9
2014-Jul-19 05:33N 32°16' E 119°52'1010.4
2014-Jul-19 04:33N 32°06' E 119°55'10 9.7
2014-Jul-19 03:33N 31°58' E 120°02'9 9.3
2014-Jul-19 02:33N 31°56' E 120°13'1010.2
2014-Jul-19 01:33N 32°01' E 120°23'9 9.3
2014-Jul-19 00:33N 32°02' E 120°34'1111.0
2014-Jul-18 23:33N 32°01' E 120°47'1211.9
2014-Jul-18 22:33N 31°50' E 120°54'1212.5
2014-Jul-18 21:33N 31°44' E 121°07'1111.0
2014-Jul-18 20:33N 31°37' E 121°17'0 0.1
2014-Jul-18 19:30N 31°37' E 121°17'0 0.2
2014-Jul-18 18:30N 31°37' E 121°17'0 0.0
2014-Jul-18 17:30N 31°37' E 121°17'0 0.0
2014-Jul-18 15:25N 31°37' E 121°17'0 0.1
2014-Jul-18 14:28N 31°37' E 121°17'8 8.1
2014-Jul-18 13:30N 31°31' E 121°22'1 0.6
2014-Jul-18 12:14N 31°30' E 121°23'0 0.0
2014-Jul-18 11:32N 31°30' E 121°23'0 0.0
2014-Jul-18 10:25N 31°30' E 121°23'0 0.0
2014-Jul-18 09:24N 31°30' E 121°23'0 0.0
2014-Jul-18 08:30N 31°30' E 121°23'0 0.0
2014-Jul-18 07:04N 31°30' E 121°23'0 0.0
2014-Jul-18 06:28N 31°30' E 121°23'0 0.0
2014-Jul-18 05:33N 31°30' E 121°23'0 0.0
2014-Jul-18 04:26N 31°30' E 121°23'0 0.0
2014-Jul-18 03:26N 31°30' E 121°23'0 0.0
2014-Jul-18 02:25N 31°30' E 121°23'0 0.0
2014-Jul-18 01:24N 31°30' E 121°23'0 0.0
2014-Jul-18 00:24N 31°30' E 121°23'0 0.0
2014-Jul-17 23:23N 31°30' E 121°23'0 0.0
2014-Jul-17 22:29N 31°30' E 121°23'0 0.0
2014-Jul-17 21:22N 31°30' E 121°23'0 0.0
2014-Jul-17 20:03N 31°30' E 121°23'0 0.0
2014-Jul-17 19:15N 31°30' E 121°23'0 0.0
2014-Jul-17 18:26N 31°30' E 121°23'0 0.0
2014-Jul-17 17:25N 31°30' E 121°23'0 0.0
2014-Jul-17 16:19N 31°30' E 121°23'0 0.0
2014-Jul-17 15:30N 31°30' E 121°23'0 0.0
2014-Jul-17 14:29N 31°30' E 121°23'0 0.0
2014-Jul-17 13:23N 31°30' E 121°23'0 0.0
2014-Jul-17 12:16N 31°30' E 121°23'0 0.0
2014-Jul-17 11:28N 31°30' E 121°23'0 0.5
2014-Jul-17 10:34N 31°30' E 121°23'1 0.8
2014-Jul-17 09:33N 31°29' E 121°24'8 7.6
2014-Jul-17 08:34N 31°25' E 121°31'10 9.5
2014-Jul-17 07:33N 31°20' E 121°41'1211.9
2014-Jul-17 06:33N 31°16' E 121°54'2713.4
2014-Jul-17 04:31N 31°07' E 122°24'15 0.8
2014-Jul-16 10:12N 31°15' E 122°39'4 0.4
2014-Jul-16 00:00N 31°18' E 122°36'0 0.0 180 / 51012.3 25.022.022.0
2014-Jul-15 00:00N 31°18' E 122°36'3 0.5 110 / 10 25.022.0
2014-Jul-14 17:26N 31°15' E 122°39'3 0.3
2014-Jul-14 06:00N 31°18' E 122°36'12 4.0 240 / 21011.0 26.023.026.0
2014-Jul-14 03:00N 31°30' E 122°36'8911.3 140 / 91010.7 5.4 26.024.627.0
2014-Jul-13 19:07N 32°59' E 122°38'19911.2
2014-Jul-13 01:15N 35°56' E 120°46'812.0
2014-Jul-13 00:33N 35°58' E 120°36'1212.1
2014-Jul-12 23:33N 36°01' E 120°21'8 7.8
2014-Jul-12 22:34N 35°60' E 120°12'  
Track history (hours):
 
Tides and Currents Weather Stations Pressure Air Temp Water Temp Dewpoint Dewpoint Depression Visibility Wind Speed Wind Dir Waves Ship Positions

Star Dieppe

Last reported at 2014-Jul-22 16:32 UTC. Time now 2014-Jul-22 17:31 UTC.
Position N 31°59' E 120°39'.

Length 182 m; draft 6.3 m.

Type: Cargo ship. MMSI: 257439000.

Date/timePositionNaut miles runAvg speedWind from/ knotsBaromVisibWave heightAir tempDewpointWater temp
2014-Jul-22 16:32N 31°59' E 120°39'0 0.0
2014-Jul-22 15:31N 31°59' E 120°39'0 0.0
2014-Jul-22 14:31N 31°59' E 120°39'0 0.0
2014-Jul-22 13:26N 31°59' E 120°39'0 0.0
2014-Jul-22 12:31N 31°59' E 120°39'0 0.0
2014-Jul-22 11:21N 31°59' E 120°39'0 0.0
2014-Jul-22 10:33N 31°59' E 120°39'0 0.0
2014-Jul-22 09:32N 31°59' E 120°39'0 0.0
2014-Jul-22 08:31N 31°59' E 120°39'0 0.0
2014-Jul-22 07:15N 31°59' E 120°39'0 0.0
2014-Jul-22 06:23N 31°59' E 120°39'0 0.0
2014-Jul-22 05:31N 31°59' E 120°39'0 0.0
2014-Jul-22 04:33N 31°59' E 120°39'3 3.1
2014-Jul-22 03:33N 32°01' E 120°36'1010.2
2014-Jul-22 02:33N 32°01' E 120°24'1312.9
2014-Jul-22 01:33N 31°56' E 120°10'1313.2
2014-Jul-22 00:33N 32°02' E 119°57'1414.5
2014-Jul-21 23:33N 32°16' E 119°52'8 8.4
2014-Jul-21 22:33N 32°16' E 119°42'1 0.6
2014-Jul-21 21:25N 32°16' E 119°42'0 0.0
2014-Jul-21 17:10N 32°16' E 119°42'0 0.0
2014-Jul-21 00:31N 32°16' E 119°42'0 0.0
2014-Jul-20 23:30N 32°16' E 119°42'0 0.0
2014-Jul-20 22:23N 32°16' E 119°42'0 0.0
2014-Jul-20 21:28N 32°16' E 119°42'0 0.0
2014-Jul-20 20:33N 32°16' E 119°42'0 0.1
2014-Jul-20 16:04N 32°16' E 119°42'4 0.2
2014-Jul-19 23:28N 32°13' E 119°40'0 0.0
2014-Jul-19 22:27N 32°13' E 119°40'0 0.0
2014-Jul-19 18:30N 32°13' E 119°40'3 0.3
2014-Jul-19 07:11N 32°16' E 119°42'7 5.9
2014-Jul-19 06:05N 32°19' E 119°48'5 8.9
2014-Jul-19 05:33N 32°16' E 119°52'1010.4
2014-Jul-19 04:33N 32°06' E 119°55'10 9.7
2014-Jul-19 03:33N 31°58' E 120°02'9 9.3
2014-Jul-19 02:33N 31°56' E 120°13'1010.2
2014-Jul-19 01:33N 32°01' E 120°23'9 9.3
2014-Jul-19 00:33N 32°02' E 120°34'1111.0
2014-Jul-18 23:33N 32°01' E 120°47'1211.9
2014-Jul-18 22:33N 31°50' E 120°54'1212.5
2014-Jul-18 21:33N 31°44' E 121°07'1111.0
2014-Jul-18 20:33N 31°37' E 121°17'0 0.1
2014-Jul-18 19:30N 31°37' E 121°17'0 0.2
2014-Jul-18 18:30N 31°37' E 121°17'0 0.0
2014-Jul-18 17:30N 31°37' E 121°17'0 0.0
2014-Jul-18 15:25N 31°37' E 121°17'0 0.1
2014-Jul-18 14:28N 31°37' E 121°17'8 8.1
2014-Jul-18 13:30N 31°31' E 121°22'1 0.6
2014-Jul-18 12:14N 31°30' E 121°23'0 0.0
2014-Jul-18 11:32N 31°30' E 121°23'0 0.0
2014-Jul-18 10:25N 31°30' E 121°23'0 0.0
2014-Jul-18 09:24N 31°30' E 121°23'0 0.0
2014-Jul-18 08:30N 31°30' E 121°23'0 0.0
2014-Jul-18 07:04N 31°30' E 121°23'0 0.0
2014-Jul-18 06:28N 31°30' E 121°23'0 0.0
2014-Jul-18 05:33N 31°30' E 121°23'0 0.0
2014-Jul-18 04:26N 31°30' E 121°23'0 0.0
2014-Jul-18 03:26N 31°30' E 121°23'0 0.0
2014-Jul-18 02:25N 31°30' E 121°23'0 0.0
2014-Jul-18 01:24N 31°30' E 121°23'0 0.0
2014-Jul-18 00:24N 31°30' E 121°23'0 0.0
2014-Jul-17 23:23N 31°30' E 121°23'0 0.0
2014-Jul-17 22:29N 31°30' E 121°23'0 0.0
2014-Jul-17 21:22N 31°30' E 121°23'0 0.0
2014-Jul-17 20:03N 31°30' E 121°23'0 0.0
2014-Jul-17 19:15N 31°30' E 121°23'0 0.0
2014-Jul-17 18:26N 31°30' E 121°23'0 0.0
2014-Jul-17 17:25N 31°30' E 121°23'0 0.0
2014-Jul-17 16:19N 31°30' E 121°23'0 0.0
2014-Jul-17 15:30N 31°30' E 121°23'0 0.0
2014-Jul-17 14:29N 31°30' E 121°23'0 0.0
2014-Jul-17 13:23N 31°30' E 121°23'0 0.0
2014-Jul-17 12:16N 31°30' E 121°23'0 0.0
2014-Jul-17 11:28N 31°30' E 121°23'0 0.5
2014-Jul-17 10:34N 31°30' E 121°23'1 0.8
2014-Jul-17 09:33N 31°29' E 121°24'8 7.6
2014-Jul-17 08:34N 31°25' E 121°31'10 9.5
2014-Jul-17 07:33N 31°20' E 121°41'1211.9
2014-Jul-17 06:33N 31°16' E 121°54'2713.4
2014-Jul-17 04:31N 31°07' E 122°24'15 0.8
2014-Jul-16 10:12N 31°15' E 122°39'4 0.4
2014-Jul-16 00:00N 31°18' E 122°36'0 0.0 180 / 51012.3 25.022.022.0
2014-Jul-15 00:00N 31°18' E 122°36'3 0.5 110 / 10 25.022.0
2014-Jul-14 17:26N 31°15' E 122°39'3 0.3
2014-Jul-14 06:00N 31°18' E 122°36'12 4.0 240 / 21011.0 26.023.026.0
2014-Jul-14 03:00N 31°30' E 122°36'8911.3 140 / 91010.7 5.4 26.024.627.0
2014-Jul-13 19:07N 32°59' E 122°38'19911.2
2014-Jul-13 01:15N 35°56' E 120°46'812.0
2014-Jul-13 00:33N 35°58' E 120°36'1212.1
2014-Jul-12 23:33N 36°01' E 120°21'8 7.8
2014-Jul-12 22:34N 35°60' E 120°12'  

Dump ship's entire track history